sensor_id;sensor_type;location;lat;lon;timestamp;pressure;altitude;pressure_sealevel;temperature;humidity
49459;BME280;35354;51.296;16.924;2023-04-23T00:01:27;99072.41;;;12.60;61.64
49459;BME280;35354;51.296;16.924;2023-04-23T00:03:57;99076.63;;;12.62;61.93
49459;BME280;35354;51.296;16.924;2023-04-23T00:06:22;99068.97;;;12.59;61.89
49459;BME280;35354;51.296;16.924;2023-04-23T00:08:52;99072.63;;;12.57;62.30
49459;BME280;35354;51.296;16.924;2023-04-23T00:11:18;99065.47;;;12.46;62.27
49459;BME280;35354;51.296;16.924;2023-04-23T00:13:43;99054.59;;;12.39;63.06
49459;BME280;35354;51.296;16.924;2023-04-23T00:16:11;99071.28;;;12.37;63.98
49459;BME280;35354;51.296;16.924;2023-04-23T00:18:37;99085.34;;;12.34;63.14
49459;BME280;35354;51.296;16.924;2023-04-23T00:21:02;99078.00;;;12.41;63.54
49459;BME280;35354;51.296;16.924;2023-04-23T00:23:28;99070.56;;;12.35;63.95
49459;BME280;35354;51.296;16.924;2023-04-23T00:25:53;99069.44;;;12.24;63.06
49459;BME280;35354;51.296;16.924;2023-04-23T00:28:18;99070.09;;;12.28;64.30
49459;BME280;35354;51.296;16.924;2023-04-23T00:30:44;99078.03;;;12.27;63.95
49459;BME280;35354;51.296;16.924;2023-04-23T00:33:09;99062.00;;;12.18;63.93
49459;BME280;35354;51.296;16.924;2023-04-23T00:35:34;99040.41;;;12.02;64.49
49459;BME280;35354;51.296;16.924;2023-04-23T00:38:00;99059.22;;;12.07;64.14
49459;BME280;35354;51.296;16.924;2023-04-23T00:40:25;99064.44;;;12.07;64.24
49459;BME280;35354;51.296;16.924;2023-04-23T00:42:51;99070.88;;;12.02;64.61
49459;BME280;35354;51.296;16.924;2023-04-23T00:45:18;99071.53;;;12.05;64.75
49459;BME280;35354;51.296;16.924;2023-04-23T00:47:44;99065.66;;;12.02;65.58
49459;BME280;35354;51.296;16.924;2023-04-23T00:50:11;99062.28;;;11.99;65.30
49459;BME280;35354;51.296;16.924;2023-04-23T00:52:37;99047.69;;;11.83;65.49
49459;BME280;35354;51.296;16.924;2023-04-23T00:55:07;99026.50;;;11.73;65.90
49459;BME280;35354;51.296;16.924;2023-04-23T00:57:36;99058.25;;;11.80;65.71
49459;BME280;35354;51.296;16.924;2023-04-23T01:00:04;99046.44;;;11.60;66.10
49459;BME280;35354;51.296;16.924;2023-04-23T01:02:31;99052.78;;;11.70;65.99
49459;BME280;35354;51.296;16.924;2023-04-23T01:04:57;99041.88;;;11.63;65.99
49459;BME280;35354;51.296;16.924;2023-04-23T01:07:24;99043.28;;;11.69;66.07
49459;BME280;35354;51.296;16.924;2023-04-23T01:09:50;99037.84;;;11.58;65.84
49459;BME280;35354;51.296;16.924;2023-04-23T01:12:16;99039.81;;;11.54;66.41
49459;BME280;35354;51.296;16.924;2023-04-23T01:14:42;99037.38;;;11.37;66.64
49459;BME280;35354;51.296;16.924;2023-04-23T01:17:07;99063.50;;;11.51;67.14
49459;BME280;35354;51.296;16.924;2023-04-23T01:19:34;99058.34;;;11.49;67.46
49459;BME280;35354;51.296;16.924;2023-04-23T01:21:59;99046.69;;;11.27;67.60
49459;BME280;35354;51.296;16.924;2023-04-23T01:24:28;99044.25;;;11.23;67.71
49459;BME280;35354;51.296;16.924;2023-04-23T01:26:55;99057.78;;;11.30;67.68
49459;BME280;35354;51.296;16.924;2023-04-23T01:29:22;99031.75;;;11.00;68.02
49459;BME280;35354;51.296;16.924;2023-04-23T01:31:48;99043.44;;;10.93;68.38
49459;BME280;35354;51.296;16.924;2023-04-23T01:34:14;99028.38;;;10.98;68.67
49459;BME280;35354;51.296;16.924;2023-04-23T01:36:40;99032.47;;;11.02;68.37
49459;BME280;35354;51.296;16.924;2023-04-23T01:39:06;99033.25;;;11.04;68.42
49459;BME280;35354;51.296;16.924;2023-04-23T01:41:32;99034.25;;;11.02;68.49
49459;BME280;35354;51.296;16.924;2023-04-23T01:43:58;99026.03;;;10.93;68.76
49459;BME280;35354;51.296;16.924;2023-04-23T01:46:24;99038.06;;;10.96;68.99
49459;BME280;35354;51.296;16.924;2023-04-23T01:48:49;99038.78;;;10.98;68.88
49459;BME280;35354;51.296;16.924;2023-04-23T01:51:15;99028.53;;;10.95;69.09
49459;BME280;35354;51.296;16.924;2023-04-23T01:53:40;99004.13;;;10.82;68.80
49459;BME280;35354;51.296;16.924;2023-04-23T01:56:06;99018.19;;;10.79;69.30
49459;BME280;35354;51.296;16.924;2023-04-23T01:58:34;99031.22;;;10.79;69.52
49459;BME280;35354;51.296;16.924;2023-04-23T02:00:59;99025.63;;;10.85;69.60
49459;BME280;35354;51.296;16.924;2023-04-23T02:03:24;99034.78;;;10.92;69.21
49459;BME280;35354;51.296;16.924;2023-04-23T02:05:52;99009.31;;;10.67;69.61
49459;BME280;35354;51.296;16.924;2023-04-23T02:08:18;99035.06;;;10.88;69.62
49459;BME280;35354;51.296;16.924;2023-04-23T02:10:43;99020.13;;;10.76;69.51
49459;BME280;35354;51.296;16.924;2023-04-23T02:13:09;99028.13;;;10.87;69.62
49459;BME280;35354;51.296;16.924;2023-04-23T02:15:34;99027.13;;;10.89;69.70
49459;BME280;35354;51.296;16.924;2023-04-23T02:18:02;99035.44;;;10.96;69.61
49459;BME280;35354;51.296;16.924;2023-04-23T02:20:27;98996.97;;;10.85;69.35
49459;BME280;35354;51.296;16.924;2023-04-23T02:22:53;99020.44;;;10.99;69.38
49459;BME280;35354;51.296;16.924;2023-04-23T02:25:18;99018.22;;;10.93;69.33
49459;BME280;35354;51.296;16.924;2023-04-23T02:27:46;99022.44;;;10.96;69.63
49459;BME280;35354;51.296;16.924;2023-04-23T02:30:11;98998.88;;;10.67;69.84
49459;BME280;35354;51.296;16.924;2023-04-23T02:32:37;99016.31;;;10.81;69.80
49459;BME280;35354;51.296;16.924;2023-04-23T02:35:03;99011.13;;;10.95;69.82
49459;BME280;35354;51.296;16.924;2023-04-23T02:37:31;99017.94;;;10.98;69.43
49459;BME280;35354;51.296;16.924;2023-04-23T02:39:57;99010.91;;;11.00;69.23
49459;BME280;35354;51.296;16.924;2023-04-23T02:42:22;99009.28;;;10.97;69.26
49459;BME280;35354;51.296;16.924;2023-04-23T02:44:47;98998.31;;;10.92;69.25
49459;BME280;35354;51.296;16.924;2023-04-23T02:47:13;99007.13;;;10.90;69.54
49459;BME280;35354;51.296;16.924;2023-04-23T02:49:38;99017.56;;;10.90;69.69
49459;BME280;35354;51.296;16.924;2023-04-23T02:52:03;98987.66;;;10.81;69.63
49459;BME280;35354;51.296;16.924;2023-04-23T02:54:29;99009.75;;;10.90;69.88
49459;BME280;35354;51.296;16.924;2023-04-23T02:56:56;99016.88;;;10.86;69.75
49459;BME280;35354;51.296;16.924;2023-04-23T02:59:22;98996.13;;;10.70;69.83
49459;BME280;35354;51.296;16.924;2023-04-23T03:01:47;99011.28;;;10.78;70.26
49459;BME280;35354;51.296;16.924;2023-04-23T03:04:13;98991.16;;;10.66;70.10
49459;BME280;35354;51.296;16.924;2023-04-23T03:06:38;99008.88;;;10.75;70.40
49459;BME280;35354;51.296;16.924;2023-04-23T03:09:03;99012.38;;;10.74;70.29
49459;BME280;35354;51.296;16.924;2023-04-23T03:11:29;98998.06;;;10.67;70.51
49459;BME280;35354;51.296;16.924;2023-04-23T03:13:54;99008.09;;;10.73;70.41
49459;BME280;35354;51.296;16.924;2023-04-23T03:16:19;99014.56;;;10.82;70.17
49459;BME280;35354;51.296;16.924;2023-04-23T03:18:45;98990.91;;;10.70;70.05
49459;BME280;35354;51.296;16.924;2023-04-23T03:21:10;99006.03;;;10.94;70.04
49459;BME280;35354;51.296;16.924;2023-04-23T03:23:36;98998.84;;;10.83;70.04
49459;BME280;35354;51.296;16.924;2023-04-23T03:26:01;98985.19;;;10.64;70.30
49459;BME280;35354;51.296;16.924;2023-04-23T03:28:26;98980.97;;;10.77;69.94
49459;BME280;35354;51.296;16.924;2023-04-23T03:30:52;99009.56;;;10.93;69.86
49459;BME280;35354;51.296;16.924;2023-04-23T03:33:17;99012.28;;;11.06;69.72
49459;BME280;35354;51.296;16.924;2023-04-23T03:35:42;98998.78;;;10.99;69.50
49459;BME280;35354;51.296;16.924;2023-04-23T03:38:08;98986.94;;;10.93;69.68
49459;BME280;35354;51.296;16.924;2023-04-23T03:40:33;98988.63;;;10.94;69.47
49459;BME280;35354;51.296;16.924;2023-04-23T03:42:58;98996.66;;;11.06;69.15
49459;BME280;35354;51.296;16.924;2023-04-23T03:45:24;98996.22;;;11.13;69.08
49459;BME280;35354;51.296;16.924;2023-04-23T03:47:50;98990.06;;;11.14;68.91
49459;BME280;35354;51.296;16.924;2023-04-23T03:50:15;98984.84;;;11.14;68.64
49459;BME280;35354;51.296;16.924;2023-04-23T03:52:42;99003.38;;;11.24;68.47
49459;BME280;35354;51.296;16.924;2023-04-23T03:55:07;98982.81;;;11.19;68.39
49459;BME280;35354;51.296;16.924;2023-04-23T03:57:34;99001.63;;;11.39;68.41
49459;BME280;35354;51.296;16.924;2023-04-23T03:59:59;98974.69;;;11.10;68.68
49459;BME280;35354;51.296;16.924;2023-04-23T04:02:25;98992.50;;;11.17;68.68
49459;BME280;35354;51.296;16.924;2023-04-23T04:04:50;98980.19;;;11.19;68.47
49459;BME280;35354;51.296;16.924;2023-04-23T04:07:16;99012.13;;;11.37;68.42
49459;BME280;35354;51.296;16.924;2023-04-23T04:09:42;98993.50;;;11.29;68.45
49459;BME280;35354;51.296;16.924;2023-04-23T04:12:07;98986.44;;;11.31;68.40
49459;BME280;35354;51.296;16.924;2023-04-23T04:14:33;99001.81;;;11.64;67.85
49459;BME280;35354;51.296;16.924;2023-04-23T04:16:58;98988.78;;;11.64;67.56
49459;BME280;35354;51.296;16.924;2023-04-23T04:19:24;99001.34;;;11.86;67.33
49459;BME280;35354;51.296;16.924;2023-04-23T04:21:49;99003.03;;;12.02;66.53
49459;BME280;35354;51.296;16.924;2023-04-23T04:24:16;98992.69;;;11.86;66.79
49459;BME280;35354;51.296;16.924;2023-04-23T04:26:43;98996.91;;;11.88;66.99
49459;BME280;35354;51.296;16.924;2023-04-23T04:29:08;98979.25;;;11.78;67.14
49459;BME280;35354;51.296;16.924;2023-04-23T04:31:34;98972.16;;;11.80;66.84
49459;BME280;35354;51.296;16.924;2023-04-23T04:34:00;98976.53;;;11.79;66.87
49459;BME280;35354;51.296;16.924;2023-04-23T04:36:25;98984.94;;;11.98;66.67
49459;BME280;35354;51.296;16.924;2023-04-23T04:38:52;98971.13;;;11.82;67.00
49459;BME280;35354;51.296;16.924;2023-04-23T04:41:20;98966.97;;;11.94;66.55
49459;BME280;35354;51.296;16.924;2023-04-23T04:43:46;98978.47;;;12.18;66.33
49459;BME280;35354;51.296;16.924;2023-04-23T04:46:12;98982.19;;;12.41;65.34
49459;BME280;35354;51.296;16.924;2023-04-23T04:48:38;98993.81;;;12.77;64.80
49459;BME280;35354;51.296;16.924;2023-04-23T04:51:03;98961.09;;;13.10;63.52
49459;BME280;35354;51.296;16.924;2023-04-23T04:53:29;98995.00;;;13.75;62.24
49459;BME280;35354;51.296;16.924;2023-04-23T04:55:54;98970.00;;;14.08;61.37
49459;BME280;35354;51.296;16.924;2023-04-23T04:58:19;98974.63;;;14.52;60.28
49459;BME280;35354;51.296;16.924;2023-04-23T05:00:45;98983.38;;;14.99;58.99
49459;BME280;35354;51.296;16.924;2023-04-23T05:03:12;98984.28;;;15.44;57.98
49459;BME280;35354;51.296;16.924;2023-04-23T05:05:37;98974.28;;;16.38;55.61
49459;BME280;35354;51.296;16.924;2023-04-23T05:08:02;98969.97;;;17.32;53.75
49459;BME280;35354;51.296;16.924;2023-04-23T05:10:28;98963.06;;;17.92;51.84
49459;BME280;35354;51.296;16.924;2023-04-23T05:12:55;98971.94;;;18.01;51.38
49459;BME280;35354;51.296;16.924;2023-04-23T05:15:21;98982.84;;;17.86;52.16
49459;BME280;35354;51.296;16.924;2023-04-23T05:17:46;98978.75;;;17.73;52.16
49459;BME280;35354;51.296;16.924;2023-04-23T05:20:12;98974.28;;;17.63;51.96
49459;BME280;35354;51.296;16.924;2023-04-23T05:22:39;98957.94;;;18.00;51.45
49459;BME280;35354;51.296;16.924;2023-04-23T05:25:06;98961.00;;;19.12;49.70
49459;BME280;35354;51.296;16.924;2023-04-23T05:27:33;98969.25;;;20.11;47.56
49459;BME280;35354;51.296;16.924;2023-04-23T05:30:00;98960.66;;;20.44;46.97
49459;BME280;35354;51.296;16.924;2023-04-23T05:32:26;98963.88;;;20.21;47.43
49459;BME280;35354;51.296;16.924;2023-04-23T05:34:51;98965.53;;;19.76;48.08
49459;BME280;35354;51.296;16.924;2023-04-23T05:37:16;98956.00;;;19.18;48.76
49459;BME280;35354;51.296;16.924;2023-04-23T05:39:41;98955.47;;;18.95;49.46
49459;BME280;35354;51.296;16.924;2023-04-23T05:42:07;98957.44;;;20.05;47.49
49459;BME280;35354;51.296;16.924;2023-04-23T05:44:32;98958.25;;;21.13;45.66
49459;BME280;35354;51.296;16.924;2023-04-23T05:46:58;98967.00;;;22.08;44.10
49459;BME280;35354;51.296;16.924;2023-04-23T05:49:23;98965.38;;;21.73;44.46
49459;BME280;35354;51.296;16.924;2023-04-23T05:51:48;98979.81;;;21.70;45.31
49459;BME280;35354;51.296;16.924;2023-04-23T05:54:15;98980.22;;;21.57;44.90
49459;BME280;35354;51.296;16.924;2023-04-23T05:56:41;98957.31;;;21.22;45.35
49459;BME280;35354;51.296;16.924;2023-04-23T05:59:06;98951.97;;;21.66;44.64
49459;BME280;35354;51.296;16.924;2023-04-23T06:01:31;98951.09;;;22.00;43.86
49459;BME280;35354;51.296;16.924;2023-04-23T06:03:56;98970.16;;;22.11;43.82
49459;BME280;35354;51.296;16.924;2023-04-23T06:06:22;98947.22;;;22.53;43.50
49459;BME280;35354;51.296;16.924;2023-04-23T06:08:47;98944.91;;;22.82;43.24
49459;BME280;35354;51.296;16.924;2023-04-23T06:11:15;98969.78;;;22.81;43.28
49459;BME280;35354;51.296;16.924;2023-04-23T06:13:40;98965.81;;;22.69;43.60
49459;BME280;35354;51.296;16.924;2023-04-23T06:16:07;98968.63;;;23.08;43.73
49459;BME280;35354;51.296;16.924;2023-04-23T06:18:33;98964.13;;;23.17;42.93
49459;BME280;35354;51.296;16.924;2023-04-23T06:20:58;98962.66;;;23.06;43.09
49459;BME280;35354;51.296;16.924;2023-04-23T06:23:28;98959.50;;;22.70;43.52
49459;BME280;35354;51.296;16.924;2023-04-23T06:25:54;98956.69;;;22.72;43.45
49459;BME280;35354;51.296;16.924;2023-04-23T06:28:19;98949.56;;;22.88;43.22
49459;BME280;35354;51.296;16.924;2023-04-23T06:30:45;98950.00;;;23.25;42.45
49459;BME280;35354;51.296;16.924;2023-04-23T06:33:11;98945.66;;;24.19;41.85
49459;BME280;35354;51.296;16.924;2023-04-23T06:35:36;98959.44;;;25.14;40.97
49459;BME280;35354;51.296;16.924;2023-04-23T06:38:02;98944.38;;;26.17;39.05
49459;BME280;35354;51.296;16.924;2023-04-23T06:40:27;98928.94;;;28.08;37.02
49459;BME280;35354;51.296;16.924;2023-04-23T06:42:52;98946.28;;;29.72;35.39
49459;BME280;35354;51.296;16.924;2023-04-23T06:45:18;98953.19;;;30.38;35.18
49459;BME280;35354;51.296;16.924;2023-04-23T06:47:44;98935.25;;;29.93;34.07
49459;BME280;35354;51.296;16.924;2023-04-23T06:50:09;98948.66;;;28.95;34.88
49459;BME280;35354;51.296;16.924;2023-04-23T06:52:35;98956.78;;;29.80;34.77
49459;BME280;35354;51.296;16.924;2023-04-23T06:55:00;98937.66;;;32.13;32.59
49459;BME280;35354;51.296;16.924;2023-04-23T06:57:27;98933.91;;;33.97;30.99
49459;BME280;35354;51.296;16.924;2023-04-23T06:59:52;98945.69;;;35.76;29.39
49459;BME280;35354;51.296;16.924;2023-04-23T07:02:18;98939.44;;;35.32;29.55
49459;BME280;35354;51.296;16.924;2023-04-23T07:04:43;98920.25;;;35.55;29.30
49459;BME280;35354;51.296;16.924;2023-04-23T07:07:08;98929.00;;;36.65;28.81
49459;BME280;35354;51.296;16.924;2023-04-23T07:09:34;98928.09;;;37.29;28.20
49459;BME280;35354;51.296;16.924;2023-04-23T07:11:59;98931.47;;;38.19;27.50
49459;BME280;35354;51.296;16.924;2023-04-23T07:14:25;98926.06;;;39.06;27.19
49459;BME280;35354;51.296;16.924;2023-04-23T07:16:50;98930.34;;;40.08;26.25
49459;BME280;35354;51.296;16.924;2023-04-23T07:19:16;98915.22;;;38.50;27.16
49459;BME280;35354;51.296;16.924;2023-04-23T07:21:41;98910.31;;;37.01;28.38
49459;BME280;35354;51.296;16.924;2023-04-23T07:24:07;98910.06;;;37.08;28.05
49459;BME280;35354;51.296;16.924;2023-04-23T07:26:33;98911.50;;;37.20;28.08
49459;BME280;35354;51.296;16.924;2023-04-23T07:28:58;98914.06;;;38.15;27.41
49459;BME280;35354;51.296;16.924;2023-04-23T07:31:25;98905.69;;;38.42;27.42
49459;BME280;35354;51.296;16.924;2023-04-23T07:33:50;98886.22;;;36.72;28.55
49459;BME280;35354;51.296;16.924;2023-04-23T07:36:16;98897.78;;;36.58;28.26
49459;BME280;35354;51.296;16.924;2023-04-23T07:38:41;98917.28;;;36.92;28.47
49459;BME280;35354;51.296;16.924;2023-04-23T07:41:07;98898.56;;;35.77;29.38
49459;BME280;35354;51.296;16.924;2023-04-23T07:43:32;98902.28;;;36.47;28.74
49459;BME280;35354;51.296;16.924;2023-04-23T07:45:57;98898.75;;;34.42;30.38
49459;BME280;35354;51.296;16.924;2023-04-23T07:48:23;98895.00;;;34.26;30.67
49459;BME280;35354;51.296;16.924;2023-04-23T07:50:48;98891.41;;;34.55;30.32
49459;BME280;35354;51.296;16.924;2023-04-23T07:53:14;98877.91;;;35.27;29.91
49459;BME280;35354;51.296;16.924;2023-04-23T07:55:39;98871.41;;;35.28;29.56
49459;BME280;35354;51.296;16.924;2023-04-23T07:58:05;98885.47;;;36.18;29.41
49459;BME280;35354;51.296;16.924;2023-04-23T08:00:30;98878.59;;;37.12;28.53
49459;BME280;35354;51.296;16.924;2023-04-23T08:02:55;98887.81;;;35.60;29.69
49459;BME280;35354;51.296;16.924;2023-04-23T08:05:21;98893.75;;;34.34;30.51
49459;BME280;35354;51.296;16.924;2023-04-23T08:07:46;98887.84;;;35.21;30.09
49459;BME280;35354;51.296;16.924;2023-04-23T08:10:11;98893.00;;;35.89;29.51
49459;BME280;35354;51.296;16.924;2023-04-23T08:12:37;98893.03;;;37.17;29.21
49459;BME280;35354;51.296;16.924;2023-04-23T08:15:02;98883.44;;;36.62;28.90
49459;BME280;35354;51.296;16.924;2023-04-23T08:17:28;98887.91;;;36.19;29.02
49459;BME280;35354;51.296;16.924;2023-04-23T08:19:53;98892.34;;;36.58;28.77
49459;BME280;35354;51.296;16.924;2023-04-23T08:22:18;98898.22;;;33.19;31.35
49459;BME280;35354;51.296;16.924;2023-04-23T08:24:43;98885.84;;;30.89;33.77
49459;BME280;35354;51.296;16.924;2023-04-23T08:27:10;98899.88;;;29.45;35.83
49459;BME280;35354;51.296;16.924;2023-04-23T08:29:36;98869.41;;;27.45;37.71
49459;BME280;35354;51.296;16.924;2023-04-23T08:32:01;98890.75;;;25.90;40.20
49459;BME280;35354;51.296;16.924;2023-04-23T08:34:26;98891.78;;;25.00;41.20
49459;BME280;35354;51.296;16.924;2023-04-23T08:36:52;98872.13;;;24.03;43.01
49459;BME280;35354;51.296;16.924;2023-04-23T08:39:17;98869.97;;;23.67;43.69
49459;BME280;35354;51.296;16.924;2023-04-23T08:41:44;98881.97;;;23.55;44.35
49459;BME280;35354;51.296;16.924;2023-04-23T08:44:18;98887.81;;;23.03;45.59
49459;BME280;35354;51.296;16.924;2023-04-23T08:46:44;98878.19;;;23.02;45.80
49459;BME280;35354;51.296;16.924;2023-04-23T08:49:13;98883.53;;;23.41;45.67
49459;BME280;35354;51.296;16.924;2023-04-23T08:51:42;98874.97;;;23.23;46.03
49459;BME280;35354;51.296;16.924;2023-04-23T08:54:15;98868.88;;;23.14;46.18
49459;BME280;35354;51.296;16.924;2023-04-23T08:56:43;98874.78;;;23.32;46.31
49459;BME280;35354;51.296;16.924;2023-04-23T08:59:08;98869.72;;;23.06;46.33
49459;BME280;35354;51.296;16.924;2023-04-23T09:01:34;98863.28;;;22.93;46.86
49459;BME280;35354;51.296;16.924;2023-04-23T09:04:01;98863.41;;;22.83;47.65
49459;BME280;35354;51.296;16.924;2023-04-23T09:06:26;98859.72;;;23.08;47.30
49459;BME280;35354;51.296;16.924;2023-04-23T09:08:52;98863.31;;;23.32;47.19
49459;BME280;35354;51.296;16.924;2023-04-23T09:11:19;98839.88;;;23.35;46.47
49459;BME280;35354;51.296;16.924;2023-04-23T09:13:46;98849.63;;;23.51;46.60
49459;BME280;35354;51.296;16.924;2023-04-23T09:16:12;98811.41;;;23.52;46.84
49459;BME280;35354;51.296;16.924;2023-04-23T09:18:37;98822.91;;;23.76;46.66
49459;BME280;35354;51.296;16.924;2023-04-23T09:21:03;98835.09;;;23.62;47.13
49459;BME280;35354;51.296;16.924;2023-04-23T09:23:29;98841.84;;;23.41;48.20
49459;BME280;35354;51.296;16.924;2023-04-23T09:25:56;98848.88;;;23.34;48.48
49459;BME280;35354;51.296;16.924;2023-04-23T09:28:33;98846.25;;;23.26;47.84
49459;BME280;35354;51.296;16.924;2023-04-23T09:30:58;98826.22;;;22.99;47.62
49459;BME280;35354;51.296;16.924;2023-04-23T09:33:27;98828.25;;;22.81;48.43
49459;BME280;35354;51.296;16.924;2023-04-23T09:35:52;98820.44;;;22.96;48.45
49459;BME280;35354;51.296;16.924;2023-04-23T09:38:18;98842.09;;;23.24;48.87
49459;BME280;35354;51.296;16.924;2023-04-23T09:40:44;98822.75;;;22.82;48.14
49459;BME280;35354;51.296;16.924;2023-04-23T09:43:10;98816.16;;;22.70;48.50
49459;BME280;35354;51.296;16.924;2023-04-23T09:45:35;98830.44;;;22.69;48.66
49459;BME280;35354;51.296;16.924;2023-04-23T09:48:00;98819.47;;;22.80;48.64
49459;BME280;35354;51.296;16.924;2023-04-23T09:50:37;98824.50;;;23.23;48.42
49459;BME280;35354;51.296;16.924;2023-04-23T09:53:06;98815.31;;;23.64;47.85
49459;BME280;35354;51.296;16.924;2023-04-23T09:55:37;98826.56;;;23.75;46.89
49459;BME280;35354;51.296;16.924;2023-04-23T09:58:10;98807.59;;;23.47;46.62
49459;BME280;35354;51.296;16.924;2023-04-23T10:00:37;98814.53;;;23.56;46.79
49459;BME280;35354;51.296;16.924;2023-04-23T10:03:03;98827.78;;;23.95;46.46
49459;BME280;35354;51.296;16.924;2023-04-23T10:05:30;98822.63;;;24.17;46.05
49459;BME280;35354;51.296;16.924;2023-04-23T10:07:56;98821.69;;;23.86;45.05
49459;BME280;35354;51.296;16.924;2023-04-23T10:10:22;98813.34;;;23.67;45.94
49459;BME280;35354;51.296;16.924;2023-04-23T10:12:50;98828.72;;;24.02;45.35
49459;BME280;35354;51.296;16.924;2023-04-23T10:15:16;98825.66;;;23.90;45.00
49459;BME280;35354;51.296;16.924;2023-04-23T10:17:41;98816.59;;;24.00;45.09
49459;BME280;35354;51.296;16.924;2023-04-23T10:20:08;98832.97;;;24.11;45.28
49459;BME280;35354;51.296;16.924;2023-04-23T10:22:34;98839.47;;;24.09;44.17
49459;BME280;35354;51.296;16.924;2023-04-23T10:25:08;98840.19;;;24.03;45.11
49459;BME280;35354;51.296;16.924;2023-04-23T10:27:37;98827.19;;;24.08;45.30
49459;BME280;35354;51.296;16.924;2023-04-23T10:30:05;98837.25;;;24.35;44.84
49459;BME280;35354;51.296;16.924;2023-04-23T10:32:32;98836.03;;;24.46;45.02
49459;BME280;35354;51.296;16.924;2023-04-23T10:34:57;98830.25;;;24.43;44.84
49459;BME280;35354;51.296;16.924;2023-04-23T10:37:23;98823.94;;;24.35;45.49
49459;BME280;35354;51.296;16.924;2023-04-23T10:39:53;98821.81;;;24.31;44.99
49459;BME280;35354;51.296;16.924;2023-04-23T10:42:19;98817.16;;;24.33;45.62
49459;BME280;35354;51.296;16.924;2023-04-23T10:44:45;98830.34;;;24.26;45.86
49459;BME280;35354;51.296;16.924;2023-04-23T10:47:15;98831.97;;;24.12;46.16
49459;BME280;35354;51.296;16.924;2023-04-23T10:49:44;98809.56;;;24.07;46.51
49459;BME280;35354;51.296;16.924;2023-04-23T10:52:12;98834.28;;;24.15;46.33
49459;BME280;35354;51.296;16.924;2023-04-23T10:54:41;98794.91;;;23.88;46.41
49459;BME280;35354;51.296;16.924;2023-04-23T10:57:08;98831.09;;;24.20;46.59
49459;BME280;35354;51.296;16.924;2023-04-23T10:59:38;98823.22;;;23.81;46.97
49459;BME280;35354;51.296;16.924;2023-04-23T11:04:32;98818.53;;;24.06;47.09
49459;BME280;35354;51.296;16.924;2023-04-23T11:07:06;98827.78;;;24.41;47.27
49459;BME280;35354;51.296;16.924;2023-04-23T11:09:37;98840.41;;;24.62;46.52
49459;BME280;35354;51.296;16.924;2023-04-23T11:14:57;98841.31;;;24.99;45.76
49459;BME280;35354;51.296;16.924;2023-04-23T11:20:10;98833.31;;;24.69;46.35
49459;BME280;35354;51.296;16.924;2023-04-23T11:22:50;98838.44;;;24.56;46.69
49459;BME280;35354;51.296;16.924;2023-04-23T11:25:26;98820.00;;;24.54;46.77
49459;BME280;35354;51.296;16.924;2023-04-23T11:27:54;98814.44;;;24.79;46.02
49459;BME280;35354;51.296;16.924;2023-04-23T11:30:26;98837.88;;;25.13;45.36
49459;BME280;35354;51.296;16.924;2023-04-23T11:32:54;98793.13;;;25.08;44.49
49459;BME280;35354;51.296;16.924;2023-04-23T11:35:21;98827.75;;;25.38;43.83
49459;BME280;35354;51.296;16.924;2023-04-23T11:37:47;98825.25;;;25.36;42.97
49459;BME280;35354;51.296;16.924;2023-04-23T11:40:17;98807.44;;;25.22;42.54
49459;BME280;35354;51.296;16.924;2023-04-23T11:42:53;98822.88;;;25.27;43.18
49459;BME280;35354;51.296;16.924;2023-04-23T11:45:27;98830.50;;;25.30;43.72
49459;BME280;35354;51.296;16.924;2023-04-23T11:47:57;98791.09;;;25.10;44.21
49459;BME280;35354;51.296;16.924;2023-04-23T11:50:27;98808.09;;;25.24;44.36
49459;BME280;35354;51.296;16.924;2023-04-23T11:52:54;98826.63;;;25.32;44.25
49459;BME280;35354;51.296;16.924;2023-04-23T11:55:19;98816.53;;;25.28;44.45
49459;BME280;35354;51.296;16.924;2023-04-23T11:57:47;98803.19;;;25.28;44.40
49459;BME280;35354;51.296;16.924;2023-04-23T12:02:57;98806.72;;;25.28;44.60
49459;BME280;35354;51.296;16.924;2023-04-23T12:05:28;98809.00;;;25.31;44.71
49459;BME280;35354;51.296;16.924;2023-04-23T12:07:53;98830.22;;;25.39;45.41
49459;BME280;35354;51.296;16.924;2023-04-23T12:10:20;98805.81;;;25.21;45.18
49459;BME280;35354;51.296;16.924;2023-04-23T12:12:50;98830.25;;;25.25;45.76
49459;BME280;35354;51.296;16.924;2023-04-23T12:15:15;98841.63;;;25.19;46.27
49459;BME280;35354;51.296;16.924;2023-04-23T12:17:41;98835.25;;;24.90;46.71
49459;BME280;35354;51.296;16.924;2023-04-23T12:20:09;98859.31;;;24.67;47.74
49459;BME280;35354;51.296;16.924;2023-04-23T12:22:37;98861.75;;;24.31;49.41
49459;BME280;35354;51.296;16.924;2023-04-23T12:25:04;98852.16;;;23.76;54.97
49459;BME280;35354;51.296;16.924;2023-04-23T12:27:38;98868.97;;;23.29;57.96
49459;BME280;35354;51.296;16.924;2023-04-23T12:30:04;98865.25;;;22.82;59.15
49459;BME280;35354;51.296;16.924;2023-04-23T12:32:32;98851.19;;;22.49;60.15
49459;BME280;35354;51.296;16.924;2023-04-23T12:34:58;98869.09;;;22.23;61.21
49459;BME280;35354;51.296;16.924;2023-04-23T12:37:28;98882.34;;;22.14;62.60
49459;BME280;35354;51.296;16.924;2023-04-23T12:39:54;98879.00;;;22.04;62.57
49459;BME280;35354;51.296;16.924;2023-04-23T12:42:22;98880.81;;;21.96;62.61
49459;BME280;35354;51.296;16.924;2023-04-23T12:44:48;98865.53;;;21.81;63.36
49459;BME280;35354;51.296;16.924;2023-04-23T12:47:15;98877.97;;;21.89;62.87
49459;BME280;35354;51.296;16.924;2023-04-23T12:49:41;98873.63;;;21.72;63.59
49459;BME280;35354;51.296;16.924;2023-04-23T12:52:07;98862.69;;;21.66;63.36
49459;BME280;35354;51.296;16.924;2023-04-23T12:54:40;98889.53;;;21.72;63.44
49459;BME280;35354;51.296;16.924;2023-04-23T12:57:07;98866.19;;;21.75;64.08